sensor_id;sensor_type;location;lat;lon;timestamp;P1;durP1;ratioP1;P2;durP2;ratioP2
15354;SDS011;7777;52.254;9.618;2022-10-31T00:02:11;6.77;;;3.73;;
15354;SDS011;7777;52.254;9.618;2022-10-31T00:04:36;7.63;;;4.60;;
15354;SDS011;7777;52.254;9.618;2022-10-31T00:07:02;11.00;;;4.77;;
15354;SDS011;7777;52.254;9.618;2022-10-31T00:09:28;8.63;;;4.80;;
15354;SDS011;7777;52.254;9.618;2022-10-31T00:11:54;10.13;;;4.40;;
15354;SDS011;7777;52.254;9.618;2022-10-31T00:14:20;11.20;;;4.63;;
15354;SDS011;7777;52.254;9.618;2022-10-31T00:16:46;7.13;;;4.33;;
15354;SDS011;7777;52.254;9.618;2022-10-31T00:19:11;14.90;;;4.27;;
15354;SDS011;7777;52.254;9.618;2022-10-31T00:21:37;14.47;;;4.47;;
15354;SDS011;7777;52.254;9.618;2022-10-31T00:24:03;12.37;;;4.37;;
15354;SDS011;7777;52.254;9.618;2022-10-31T00:26:30;10.23;;;4.57;;
15354;SDS011;7777;52.254;9.618;2022-10-31T00:28:57;7.73;;;4.30;;
15354;SDS011;7777;52.254;9.618;2022-10-31T00:31:23;10.00;;;5.00;;
15354;SDS011;7777;52.254;9.618;2022-10-31T00:33:49;8.87;;;5.20;;
15354;SDS011;7777;52.254;9.618;2022-10-31T00:36:16;12.33;;;4.27;;
15354;SDS011;7777;52.254;9.618;2022-10-31T00:38:44;10.90;;;4.90;;
15354;SDS011;7777;52.254;9.618;2022-10-31T00:41:11;10.23;;;4.57;;
15354;SDS011;7777;52.254;9.618;2022-10-31T00:43:39;14.93;;;4.90;;
15354;SDS011;7777;52.254;9.618;2022-10-31T00:46:06;13.53;;;4.57;;
15354;SDS011;7777;52.254;9.618;2022-10-31T00:48:32;10.27;;;3.80;;
15354;SDS011;7777;52.254;9.618;2022-10-31T00:50:57;11.67;;;4.67;;
15354;SDS011;7777;52.254;9.618;2022-10-31T00:53:23;11.07;;;4.53;;
15354;SDS011;7777;52.254;9.618;2022-10-31T00:55:49;8.63;;;5.00;;
15354;SDS011;7777;52.254;9.618;2022-10-31T00:58:15;13.17;;;4.83;;
15354;SDS011;7777;52.254;9.618;2022-10-31T01:00:41;12.13;;;4.63;;
15354;SDS011;7777;52.254;9.618;2022-10-31T01:03:07;11.07;;;5.10;;
15354;SDS011;7777;52.254;9.618;2022-10-31T01:05:33;11.03;;;4.60;;
15354;SDS011;7777;52.254;9.618;2022-10-31T01:07:58;17.90;;;5.67;;
15354;SDS011;7777;52.254;9.618;2022-10-31T01:10:24;9.57;;;4.93;;
15354;SDS011;7777;52.254;9.618;2022-10-31T01:12:50;12.27;;;5.27;;
15354;SDS011;7777;52.254;9.618;2022-10-31T01:15:18;11.17;;;6.33;;
15354;SDS011;7777;52.254;9.618;2022-10-31T01:17:46;23.23;;;12.70;;
15354;SDS011;7777;52.254;9.618;2022-10-31T01:20:13;34.10;;;17.23;;
15354;SDS011;7777;52.254;9.618;2022-10-31T01:22:40;34.63;;;19.27;;
15354;SDS011;7777;52.254;9.618;2022-10-31T01:25:07;33.67;;;20.60;;
15354;SDS011;7777;52.254;9.618;2022-10-31T01:27:34;40.37;;;20.87;;
15354;SDS011;7777;52.254;9.618;2022-10-31T01:30:00;41.17;;;21.33;;
15354;SDS011;7777;52.254;9.618;2022-10-31T01:32:26;36.17;;;20.20;;
15354;SDS011;7777;52.254;9.618;2022-10-31T01:34:55;31.33;;;19.93;;
15354;SDS011;7777;52.254;9.618;2022-10-31T01:37:21;32.77;;;20.30;;
15354;SDS011;7777;52.254;9.618;2022-10-31T01:39:50;38.87;;;21.13;;
15354;SDS011;7777;52.254;9.618;2022-10-31T01:42:17;30.17;;;19.13;;
15354;SDS011;7777;52.254;9.618;2022-10-31T01:44:56;32.97;;;20.07;;
15354;SDS011;7777;52.254;9.618;2022-10-31T01:47:27;33.73;;;19.70;;
15354;SDS011;7777;52.254;9.618;2022-10-31T01:50:04;32.77;;;19.17;;
15354;SDS011;7777;52.254;9.618;2022-10-31T01:52:39;36.33;;;19.90;;
15354;SDS011;7777;52.254;9.618;2022-10-31T01:55:12;30.03;;;19.37;;
15354;SDS011;7777;52.254;9.618;2022-10-31T01:57:43;30.40;;;17.60;;
15354;SDS011;7777;52.254;9.618;2022-10-31T02:00:12;36.40;;;19.20;;
15354;SDS011;7777;52.254;9.618;2022-10-31T02:02:39;28.07;;;17.83;;
15354;SDS011;7777;52.254;9.618;2022-10-31T02:05:06;38.63;;;17.80;;
15354;SDS011;7777;52.254;9.618;2022-10-31T02:07:38;26.17;;;17.27;;
15354;SDS011;7777;52.254;9.618;2022-10-31T02:10:10;29.93;;;18.20;;
15354;SDS011;7777;52.254;9.618;2022-10-31T02:12:36;28.43;;;16.67;;
15354;SDS011;7777;52.254;9.618;2022-10-31T02:15:03;30.10;;;16.50;;
15354;SDS011;7777;52.254;9.618;2022-10-31T02:17:30;27.30;;;16.27;;
15354;SDS011;7777;52.254;9.618;2022-10-31T02:35:16;28.73;;;13.97;;
15354;SDS011;7777;52.254;9.618;2022-10-31T02:41:21;20.60;;;13.40;;
15354;SDS011;7777;52.254;9.618;2022-10-31T02:46:50;22.70;;;13.93;;
15354;SDS011;7777;52.254;9.618;2022-10-31T02:49:28;26.07;;;13.63;;
15354;SDS011;7777;52.254;9.618;2022-10-31T02:51:58;27.07;;;13.67;;
15354;SDS011;7777;52.254;9.618;2022-10-31T02:54:24;29.27;;;13.63;;
15354;SDS011;7777;52.254;9.618;2022-10-31T02:57:03;22.57;;;12.83;;
15354;SDS011;7777;52.254;9.618;2022-10-31T02:59:32;25.27;;;14.50;;
15354;SDS011;7777;52.254;9.618;2022-10-31T03:02:06;22.97;;;13.07;;
15354;SDS011;7777;52.254;9.618;2022-10-31T03:10:58;19.83;;;13.33;;
15354;SDS011;7777;52.254;9.618;2022-10-31T03:13:47;20.17;;;13.20;;
15354;SDS011;7777;52.254;9.618;2022-10-31T03:16:39;26.00;;;13.33;;
15354;SDS011;7777;52.254;9.618;2022-10-31T03:24:52;23.20;;;12.13;;
15354;SDS011;7777;52.254;9.618;2022-10-31T03:27:24;20.30;;;11.63;;
15354;SDS011;7777;52.254;9.618;2022-10-31T03:29:54;16.57;;;11.40;;
15354;SDS011;7777;52.254;9.618;2022-10-31T03:32:27;21.07;;;12.20;;
15354;SDS011;7777;52.254;9.618;2022-10-31T03:35:00;19.07;;;11.97;;
15354;SDS011;7777;52.254;9.618;2022-10-31T03:37:32;17.90;;;11.93;;
15354;SDS011;7777;52.254;9.618;2022-10-31T03:40:00;22.60;;;11.73;;
15354;SDS011;7777;52.254;9.618;2022-10-31T03:42:31;19.53;;;11.20;;
15354;SDS011;7777;52.254;9.618;2022-10-31T03:47:32;18.57;;;10.83;;
15354;SDS011;7777;52.254;9.618;2022-10-31T03:50:00;25.00;;;11.87;;
15354;SDS011;7777;52.254;9.618;2022-10-31T03:55:21;22.67;;;10.80;;
15354;SDS011;7777;52.254;9.618;2022-10-31T04:01:02;19.63;;;10.63;;
15354;SDS011;7777;52.254;9.618;2022-10-31T04:03:32;18.70;;;10.37;;
15354;SDS011;7777;52.254;9.618;2022-10-31T04:06:02;15.77;;;10.33;;
15354;SDS011;7777;52.254;9.618;2022-10-31T04:08:32;17.63;;;10.10;;
15354;SDS011;7777;52.254;9.618;2022-10-31T04:11:05;16.50;;;9.50;;
15354;SDS011;7777;52.254;9.618;2022-10-31T04:13:34;17.63;;;9.83;;
15354;SDS011;7777;52.254;9.618;2022-10-31T04:16:02;15.70;;;9.97;;
15354;SDS011;7777;52.254;9.618;2022-10-31T04:18:29;16.43;;;9.93;;
15354;SDS011;7777;52.254;9.618;2022-10-31T04:21:02;16.30;;;10.10;;
15354;SDS011;7777;52.254;9.618;2022-10-31T04:23:31;16.17;;;9.83;;
15354;SDS011;7777;52.254;9.618;2022-10-31T04:25:58;17.17;;;9.87;;
15354;SDS011;7777;52.254;9.618;2022-10-31T04:28:23;15.63;;;9.37;;
15354;SDS011;7777;52.254;9.618;2022-10-31T04:30:49;16.57;;;8.90;;
15354;SDS011;7777;52.254;9.618;2022-10-31T04:33:15;14.27;;;8.47;;
15354;SDS011;7777;52.254;9.618;2022-10-31T04:35:41;14.23;;;8.13;;
15354;SDS011;7777;52.254;9.618;2022-10-31T04:38:06;13.87;;;8.67;;
15354;SDS011;7777;52.254;9.618;2022-10-31T04:40:32;10.90;;;7.30;;
15354;SDS011;7777;52.254;9.618;2022-10-31T04:42:58;15.67;;;7.80;;
15354;SDS011;7777;52.254;9.618;2022-10-31T04:45:23;12.60;;;7.57;;
15354;SDS011;7777;52.254;9.618;2022-10-31T04:47:49;16.13;;;7.20;;
15354;SDS011;7777;52.254;9.618;2022-10-31T04:50:15;11.60;;;6.40;;
15354;SDS011;7777;52.254;9.618;2022-10-31T04:52:41;11.40;;;6.03;;
15354;SDS011;7777;52.254;9.618;2022-10-31T04:55:09;11.67;;;5.70;;
15354;SDS011;7777;52.254;9.618;2022-10-31T04:57:42;18.10;;;6.10;;
15354;SDS011;7777;52.254;9.618;2022-10-31T05:00:10;9.47;;;5.07;;
15354;SDS011;7777;52.254;9.618;2022-10-31T05:02:42;7.57;;;4.50;;
15354;SDS011;7777;52.254;9.618;2022-10-31T05:05:26;7.77;;;4.50;;
15354;SDS011;7777;52.254;9.618;2022-10-31T05:07:55;7.30;;;4.03;;
15354;SDS011;7777;52.254;9.618;2022-10-31T05:10:25;8.33;;;4.63;;
15354;SDS011;7777;52.254;9.618;2022-10-31T05:12:58;9.87;;;4.10;;
15354;SDS011;7777;52.254;9.618;2022-10-31T05:15:26;8.27;;;4.47;;
15354;SDS011;7777;52.254;9.618;2022-10-31T05:17:53;6.53;;;3.60;;
15354;SDS011;7777;52.254;9.618;2022-10-31T05:20:20;7.87;;;3.80;;
15354;SDS011;7777;52.254;9.618;2022-10-31T05:22:49;8.00;;;4.00;;
15354;SDS011;7777;52.254;9.618;2022-10-31T05:25:18;6.20;;;3.63;;
15354;SDS011;7777;52.254;9.618;2022-10-31T05:27:46;8.47;;;3.60;;
15354;SDS011;7777;52.254;9.618;2022-10-31T05:30:15;8.23;;;4.10;;
15354;SDS011;7777;52.254;9.618;2022-10-31T05:32:45;6.20;;;3.73;;
15354;SDS011;7777;52.254;9.618;2022-10-31T05:35:14;9.73;;;3.17;;
15354;SDS011;7777;52.254;9.618;2022-10-31T05:37:55;6.07;;;3.37;;
15354;SDS011;7777;52.254;9.618;2022-10-31T05:40:22;5.53;;;3.00;;
15354;SDS011;7777;52.254;9.618;2022-10-31T05:42:53;8.47;;;3.53;;
15354;SDS011;7777;52.254;9.618;2022-10-31T05:45:20;5.20;;;3.03;;
15354;SDS011;7777;52.254;9.618;2022-10-31T05:47:54;8.70;;;3.20;;
15354;SDS011;7777;52.254;9.618;2022-10-31T05:50:24;8.50;;;3.27;;
15354;SDS011;7777;52.254;9.618;2022-10-31T05:53:02;6.67;;;3.00;;
15354;SDS011;7777;52.254;9.618;2022-10-31T05:55:30;8.37;;;3.10;;
15354;SDS011;7777;52.254;9.618;2022-10-31T05:57:57;7.87;;;3.10;;
15354;SDS011;7777;52.254;9.618;2022-10-31T06:00:23;4.60;;;3.03;;
15354;SDS011;7777;52.254;9.618;2022-10-31T06:02:57;7.87;;;2.70;;
15354;SDS011;7777;52.254;9.618;2022-10-31T06:05:24;6.03;;;3.10;;
15354;SDS011;7777;52.254;9.618;2022-10-31T06:07:50;10.10;;;2.50;;
15354;SDS011;7777;52.254;9.618;2022-10-31T06:10:16;7.37;;;3.17;;
15354;SDS011;7777;52.254;9.618;2022-10-31T06:12:44;6.93;;;3.03;;
15354;SDS011;7777;52.254;9.618;2022-10-31T06:15:09;9.07;;;3.87;;
15354;SDS011;7777;52.254;9.618;2022-10-31T06:17:35;6.67;;;3.40;;
15354;SDS011;7777;52.254;9.618;2022-10-31T06:20:02;8.87;;;3.90;;
15354;SDS011;7777;52.254;9.618;2022-10-31T06:22:28;9.13;;;4.47;;
15354;SDS011;7777;52.254;9.618;2022-10-31T06:24:54;7.87;;;4.00;;
15354;SDS011;7777;52.254;9.618;2022-10-31T06:27:20;7.03;;;4.13;;
15354;SDS011;7777;52.254;9.618;2022-10-31T06:29:46;8.87;;;5.00;;
15354;SDS011;7777;52.254;9.618;2022-10-31T06:32:12;10.07;;;4.17;;
15354;SDS011;7777;52.254;9.618;2022-10-31T06:34:39;12.27;;;5.13;;
15354;SDS011;7777;52.254;9.618;2022-10-31T06:37:06;7.63;;;4.67;;
15354;SDS011;7777;52.254;9.618;2022-10-31T06:39:33;6.77;;;4.50;;
15354;SDS011;7777;52.254;9.618;2022-10-31T06:42:01;11.93;;;5.47;;
15354;SDS011;7777;52.254;9.618;2022-10-31T06:44:28;12.40;;;5.50;;
15354;SDS011;7777;52.254;9.618;2022-10-31T06:46:54;9.77;;;5.03;;
15354;SDS011;7777;52.254;9.618;2022-10-31T06:49:20;12.17;;;5.57;;
15354;SDS011;7777;52.254;9.618;2022-10-31T06:51:49;9.37;;;5.60;;
15354;SDS011;7777;52.254;9.618;2022-10-31T06:54:15;9.23;;;5.17;;
15354;SDS011;7777;52.254;9.618;2022-10-31T06:56:41;11.40;;;4.67;;
15354;SDS011;7777;52.254;9.618;2022-10-31T06:59:07;10.90;;;4.70;;
15354;SDS011;7777;52.254;9.618;2022-10-31T07:01:33;11.97;;;5.13;;
15354;SDS011;7777;52.254;9.618;2022-10-31T07:03:59;9.57;;;4.97;;
15354;SDS011;7777;52.254;9.618;2022-10-31T07:06:24;12.60;;;5.27;;
15354;SDS011;7777;52.254;9.618;2022-10-31T07:08:50;10.40;;;4.80;;
15354;SDS011;7777;52.254;9.618;2022-10-31T07:11:16;11.03;;;5.27;;
15354;SDS011;7777;52.254;9.618;2022-10-31T07:13:42;10.17;;;4.80;;
15354;SDS011;7777;52.254;9.618;2022-10-31T07:16:07;8.53;;;6.00;;
15354;SDS011;7777;52.254;9.618;2022-10-31T07:18:36;14.30;;;6.73;;
15354;SDS011;7777;52.254;9.618;2022-10-31T07:21:03;13.93;;;5.93;;
15354;SDS011;7777;52.254;9.618;2022-10-31T07:23:29;10.33;;;5.77;;
15354;SDS011;7777;52.254;9.618;2022-10-31T07:25:55;8.80;;;5.93;;
15354;SDS011;7777;52.254;9.618;2022-10-31T07:28:22;11.77;;;6.90;;
15354;SDS011;7777;52.254;9.618;2022-10-31T07:30:55;12.47;;;5.80;;
15354;SDS011;7777;52.254;9.618;2022-10-31T07:33:34;11.07;;;6.97;;
15354;SDS011;7777;52.254;9.618;2022-10-31T07:36:00;11.00;;;6.73;;
15354;SDS011;7777;52.254;9.618;2022-10-31T07:38:26;14.70;;;7.03;;
15354;SDS011;7777;52.254;9.618;2022-10-31T07:40:51;14.43;;;7.83;;
15354;SDS011;7777;52.254;9.618;2022-10-31T07:43:18;14.87;;;8.30;;
15354;SDS011;7777;52.254;9.618;2022-10-31T07:45:44;14.60;;;8.43;;
15354;SDS011;7777;52.254;9.618;2022-10-31T07:48:18;14.03;;;8.23;;
15354;SDS011;7777;52.254;9.618;2022-10-31T07:50:46;18.90;;;8.33;;
15354;SDS011;7777;52.254;9.618;2022-10-31T07:53:13;15.73;;;9.53;;
15354;SDS011;7777;52.254;9.618;2022-10-31T07:55:39;17.53;;;8.70;;
15354;SDS011;7777;52.254;9.618;2022-10-31T07:58:10;16.50;;;8.83;;
15354;SDS011;7777;52.254;9.618;2022-10-31T08:00:39;15.73;;;10.00;;
15354;SDS011;7777;52.254;9.618;2022-10-31T08:03:14;15.40;;;9.33;;
15354;SDS011;7777;52.254;9.618;2022-10-31T08:05:43;18.83;;;10.93;;
15354;SDS011;7777;52.254;9.618;2022-10-31T08:08:12;16.30;;;11.10;;
15354;SDS011;7777;52.254;9.618;2022-10-31T08:10:39;23.77;;;12.17;;
15354;SDS011;7777;52.254;9.618;2022-10-31T08:13:07;20.27;;;13.87;;
15354;SDS011;7777;52.254;9.618;2022-10-31T08:15:35;24.67;;;14.27;;
15354;SDS011;7777;52.254;9.618;2022-10-31T08:18:04;19.70;;;13.07;;
15354;SDS011;7777;52.254;9.618;2022-10-31T08:20:31;19.50;;;12.83;;
15354;SDS011;7777;52.254;9.618;2022-10-31T08:22:58;22.77;;;13.63;;
15354;SDS011;7777;52.254;9.618;2022-10-31T08:25:27;21.27;;;12.70;;
15354;SDS011;7777;52.254;9.618;2022-10-31T08:27:55;20.77;;;12.43;;
15354;SDS011;7777;52.254;9.618;2022-10-31T08:30:22;20.67;;;13.30;;
15354;SDS011;7777;52.254;9.618;2022-10-31T08:33:01;18.73;;;11.00;;
15354;SDS011;7777;52.254;9.618;2022-10-31T08:35:31;19.93;;;12.37;;
15354;SDS011;7777;52.254;9.618;2022-10-31T08:38:01;22.27;;;14.50;;
15354;SDS011;7777;52.254;9.618;2022-10-31T08:40:28;20.93;;;12.90;;
15354;SDS011;7777;52.254;9.618;2022-10-31T08:45:36;21.10;;;14.13;;
15354;SDS011;7777;52.254;9.618;2022-10-31T08:48:06;25.70;;;14.83;;
15354;SDS011;7777;52.254;9.618;2022-10-31T08:50:38;26.30;;;16.43;;
15354;SDS011;7777;52.254;9.618;2022-10-31T08:53:05;28.67;;;17.53;;
15354;SDS011;7777;52.254;9.618;2022-10-31T08:55:44;30.57;;;18.60;;
15354;SDS011;7777;52.254;9.618;2022-10-31T08:58:12;30.83;;;18.60;;
15354;SDS011;7777;52.254;9.618;2022-10-31T09:00:41;35.97;;;20.50;;
15354;SDS011;7777;52.254;9.618;2022-10-31T09:03:14;30.17;;;18.87;;
15354;SDS011;7777;52.254;9.618;2022-10-31T09:05:43;35.37;;;18.93;;
15354;SDS011;7777;52.254;9.618;2022-10-31T09:08:10;29.27;;;17.87;;
15354;SDS011;7777;52.254;9.618;2022-10-31T09:10:37;33.20;;;18.50;;
15354;SDS011;7777;52.254;9.618;2022-10-31T09:13:05;26.73;;;18.07;;
15354;SDS011;7777;52.254;9.618;2022-10-31T09:15:35;28.63;;;17.53;;
15354;SDS011;7777;52.254;9.618;2022-10-31T09:18:07;24.97;;;16.23;;
15354;SDS011;7777;52.254;9.618;2022-10-31T09:20:35;30.37;;;17.77;;
15354;SDS011;7777;52.254;9.618;2022-10-31T09:23:23;27.93;;;17.73;;
15354;SDS011;7777;52.254;9.618;2022-10-31T09:25:50;28.10;;;16.30;;
15354;SDS011;7777;52.254;9.618;2022-10-31T09:28:18;28.30;;;17.77;;
15354;SDS011;7777;52.254;9.618;2022-10-31T09:30:48;29.30;;;15.90;;
15354;SDS011;7777;52.254;9.618;2022-10-31T09:33:15;29.30;;;16.03;;
15354;SDS011;7777;52.254;9.618;2022-10-31T09:35:42;28.07;;;16.10;;
15354;SDS011;7777;52.254;9.618;2022-10-31T09:38:09;28.50;;;16.97;;
15354;SDS011;7777;52.254;9.618;2022-10-31T09:46:44;24.83;;;13.83;;
15354;SDS011;7777;52.254;9.618;2022-10-31T09:54:52;30.73;;;14.60;;
15354;SDS011;7777;52.254;9.618;2022-10-31T09:57:29;26.90;;;14.87;;
15354;SDS011;7777;52.254;9.618;2022-10-31T09:59:58;25.80;;;14.43;;
15354;SDS011;7777;52.254;9.618;2022-10-31T10:05:11;19.90;;;12.77;;
15354;SDS011;7777;52.254;9.618;2022-10-31T10:20:01;22.40;;;13.53;;
15354;SDS011;7777;52.254;9.618;2022-10-31T10:26:03;25.40;;;11.97;;
15354;SDS011;7777;52.254;9.618;2022-10-31T10:28:41;24.47;;;11.70;;
15354;SDS011;7777;52.254;9.618;2022-10-31T10:39:26;18.50;;;10.47;;
15354;SDS011;7777;52.254;9.618;2022-10-31T10:42:12;17.67;;;11.57;;
15354;SDS011;7777;52.254;9.618;2022-10-31T10:44:59;16.37;;;12.00;;
15354;SDS011;7777;52.254;9.618;2022-10-31T10:47:48;25.87;;;11.70;;
15354;SDS011;7777;52.254;9.618;2022-10-31T10:50:36;21.23;;;10.53;;
15354;SDS011;7777;52.254;9.618;2022-10-31T10:54:15;25.43;;;12.33;;
15354;SDS011;7777;52.254;9.618;2022-10-31T10:56:40;20.87;;;11.43;;
15354;SDS011;7777;52.254;9.618;2022-10-31T10:59:30;17.63;;;10.13;;
15354;SDS011;7777;52.254;9.618;2022-10-31T11:01:56;21.63;;;11.10;;
15354;SDS011;7777;52.254;9.618;2022-10-31T11:04:38;20.90;;;11.57;;
15354;SDS011;7777;52.254;9.618;2022-10-31T11:07:09;21.73;;;11.27;;
15354;SDS011;7777;52.254;9.618;2022-10-31T11:09:37;18.63;;;11.40;;
15354;SDS011;7777;52.254;9.618;2022-10-31T11:12:46;16.83;;;10.23;;
15354;SDS011;7777;52.254;9.618;2022-10-31T11:15:00;39.07;;;11.13;;
15354;SDS011;7777;52.254;9.618;2022-10-31T11:17:34;25.97;;;10.13;;
15354;SDS011;7777;52.254;9.618;2022-10-31T11:20:16;18.17;;;8.87;;
15354;SDS011;7777;52.254;9.618;2022-10-31T11:23:04;23.37;;;9.73;;
15354;SDS011;7777;52.254;9.618;2022-10-31T11:25:55;18.47;;;8.83;;
15354;SDS011;7777;52.254;9.618;2022-10-31T11:28:27;17.53;;;9.07;;
15354;SDS011;7777;52.254;9.618;2022-10-31T11:30:56;18.13;;;9.40;;
15354;SDS011;7777;52.254;9.618;2022-10-31T11:33:28;17.37;;;8.57;;
15354;SDS011;7777;52.254;9.618;2022-10-31T11:35:58;25.83;;;9.47;;
15354;SDS011;7777;52.254;9.618;2022-10-31T11:38:39;15.73;;;8.20;;
15354;SDS011;7777;52.254;9.618;2022-10-31T11:41:27;18.47;;;8.30;;
15354;SDS011;7777;52.254;9.618;2022-10-31T11:43:57;22.83;;;9.43;;
15354;SDS011;7777;52.254;9.618;2022-10-31T11:46:35;21.00;;;9.13;;
15354;SDS011;7777;52.254;9.618;2022-10-31T11:49:11;15.33;;;8.23;;
15354;SDS011;7777;52.254;9.618;2022-10-31T11:52:02;18.17;;;8.73;;
15354;SDS011;7777;52.254;9.618;2022-10-31T11:54:41;16.33;;;9.07;;
15354;SDS011;7777;52.254;9.618;2022-10-31T12:00:22;13.87;;;8.20;;
15354;SDS011;7777;52.254;9.618;2022-10-31T12:03:10;18.47;;;9.07;;
15354;SDS011;7777;52.254;9.618;2022-10-31T12:05:58;18.77;;;9.33;;
15354;SDS011;7777;52.254;9.618;2022-10-31T12:08:43;23.57;;;8.07;;
15354;SDS011;7777;52.254;9.618;2022-10-31T12:11:11;17.43;;;7.50;;
15354;SDS011;7777;52.254;9.618;2022-10-31T12:17:16;16.40;;;8.67;;
15354;SDS011;7777;52.254;9.618;2022-10-31T12:23:13;22.47;;;9.63;;
15354;SDS011;7777;52.254;9.618;2022-10-31T12:45:31;16.20;;;8.77;;
15354;SDS011;7777;52.254;9.618;2022-10-31T13:02:21;18.83;;;10.10;;
15354;SDS011;7777;52.254;9.618;2022-10-31T13:04:58;16.23;;;8.83;;
15354;SDS011;7777;52.254;9.618;2022-10-31T13:08:05;22.63;;;7.87;;
15354;SDS011;7777;52.254;9.618;2022-10-31T13:10:47;19.63;;;7.63;;
15354;SDS011;7777;52.254;9.618;2022-10-31T13:13:21;17.30;;;7.87;;
15354;SDS011;7777;52.254;9.618;2022-10-31T13:16:14;12.33;;;7.67;;
15354;SDS011;7777;52.254;9.618;2022-10-31T13:18:51;18.50;;;8.50;;
15354;SDS011;7777;52.254;9.618;2022-10-31T13:21:25;19.60;;;8.23;;
15354;SDS011;7777;52.254;9.618;2022-10-31T13:23:56;17.20;;;8.33;;
15354;SDS011;7777;52.254;9.618;2022-10-31T13:29:03;17.03;;;8.60;;
15354;SDS011;7777;52.254;9.618;2022-10-31T13:31:33;16.37;;;9.10;;
15354;SDS011;7777;52.254;9.618;2022-10-31T13:34:09;15.67;;;8.43;;
15354;SDS011;7777;52.254;9.618;2022-10-31T13:45:21;19.50;;;9.47;;
15354;SDS011;7777;52.254;9.618;2022-10-31T13:48:00;13.00;;;8.30;;
15354;SDS011;7777;52.254;9.618;2022-10-31T13:50:55;15.10;;;8.07;;
15354;SDS011;7777;52.254;9.618;2022-10-31T13:53:37;18.90;;;9.23;;
15354;SDS011;7777;52.254;9.618;2022-10-31T13:56:29;15.97;;;8.40;;
15354;SDS011;7777;52.254;9.618;2022-10-31T13:58:59;16.03;;;7.87;;
15354;SDS011;7777;52.254;9.618;2022-10-31T14:01:29;18.23;;;9.47;;
15354;SDS011;7777;52.254;9.618;2022-10-31T14:04:03;16.53;;;9.20;;
15354;SDS011;7777;52.254;9.618;2022-10-31T14:06:58;21.47;;;9.60;;
15354;SDS011;7777;52.254;9.618;2022-10-31T14:11:55;18.37;;;10.00;;
15354;SDS011;7777;52.254;9.618;2022-10-31T14:14:26;14.13;;;8.33;;
15354;SDS011;7777;52.254;9.618;2022-10-31T14:17:17;20.57;;;10.50;;
15354;SDS011;7777;52.254;9.618;2022-10-31T14:20:00;15.70;;;10.00;;
15354;SDS011;7777;52.254;9.618;2022-10-31T14:22:48;16.00;;;9.10;;
15354;SDS011;7777;52.254;9.618;2022-10-31T14:25:27;13.60;;;8.30;;
15354;SDS011;7777;52.254;9.618;2022-10-31T14:28:00;14.07;;;8.37;;
15354;SDS011;7777;52.254;9.618;2022-10-31T14:30:30;16.23;;;8.77;;
15354;SDS011;7777;52.254;9.618;2022-10-31T14:33:12;19.07;;;9.70;;
15354;SDS011;7777;52.254;9.618;2022-10-31T14:39:07;16.70;;;9.37;;
15354;SDS011;7777;52.254;9.618;2022-10-31T14:44:39;19.60;;;9.67;;
15354;SDS011;7777;52.254;9.618;2022-10-31T14:47:21;19.33;;;10.20;;
15354;SDS011;7777;52.254;9.618;2022-10-31T14:52:56;19.73;;;9.60;;
15354;SDS011;7777;52.254;9.618;2022-10-31T14:55:26;21.30;;;11.70;;
15354;SDS011;7777;52.254;9.618;2022-10-31T14:57:53;19.43;;;10.20;;
15354;SDS011;7777;52.254;9.618;2022-10-31T15:00:26;21.37;;;10.83;;
15354;SDS011;7777;52.254;9.618;2022-10-31T15:05:34;17.67;;;9.07;;
15354;SDS011;7777;52.254;9.618;2022-10-31T15:08:26;17.67;;;8.97;;
15354;SDS011;7777;52.254;9.618;2022-10-31T15:11:25;18.10;;;8.77;;
15354;SDS011;7777;52.254;9.618;2022-10-31T15:13:56;23.70;;;8.60;;
15354;SDS011;7777;52.254;9.618;2022-10-31T15:16:32;15.63;;;9.00;;
15354;SDS011;7777;52.254;9.618;2022-10-31T15:19:04;18.40;;;9.20;;
15354;SDS011;7777;52.254;9.618;2022-10-31T15:21:33;15.80;;;8.07;;
15354;SDS011;7777;52.254;9.618;2022-10-31T15:24:01;21.70;;;9.20;;
15354;SDS011;7777;52.254;9.618;2022-10-31T15:26:32;15.47;;;8.13;;
15354;SDS011;7777;52.254;9.618;2022-10-31T15:29:10;15.63;;;8.83;;
15354;SDS011;7777;52.254;9.618;2022-10-31T15:31:55;16.80;;;8.20;;
15354;SDS011;7777;52.254;9.618;2022-10-31T15:37:03;14.30;;;7.83;;
15354;SDS011;7777;52.254;9.618;2022-10-31T15:39:34;19.10;;;9.80;;
15354;SDS011;7777;52.254;9.618;2022-10-31T15:41:59;18.10;;;8.53;;
15354;SDS011;7777;52.254;9.618;2022-10-31T15:44:27;13.57;;;9.57;;
15354;SDS011;7777;52.254;9.618;2022-10-31T15:49:55;22.97;;;13.33;;
15354;SDS011;7777;52.254;9.618;2022-10-31T15:52:39;20.77;;;13.73;;
15354;SDS011;7777;52.254;9.618;2022-10-31T15:57:34;23.77;;;13.73;;
15354;SDS011;7777;52.254;9.618;2022-10-31T16:05:39;29.40;;;15.63;;
15354;SDS011;7777;52.254;9.618;2022-10-31T16:08:22;25.63;;;14.97;;
15354;SDS011;7777;52.254;9.618;2022-10-31T16:10:56;22.83;;;13.90;;
15354;SDS011;7777;52.254;9.618;2022-10-31T16:14:22;25.23;;;15.80;;
15354;SDS011;7777;52.254;9.618;2022-10-31T16:16:42;28.83;;;16.77;;
15354;SDS011;7777;52.254;9.618;2022-10-31T16:19:15;27.70;;;16.87;;
15354;SDS011;7777;52.254;9.618;2022-10-31T16:22:08;29.63;;;15.60;;
15354;SDS011;7777;52.254;9.618;2022-10-31T16:27:39;27.17;;;16.97;;
15354;SDS011;7777;52.254;9.618;2022-10-31T16:35:53;27.07;;;16.20;;
15354;SDS011;7777;52.254;9.618;2022-10-31T16:38:21;24.67;;;15.73;;
15354;SDS011;7777;52.254;9.618;2022-10-31T16:40:47;22.50;;;14.53;;
15354;SDS011;7777;52.254;9.618;2022-10-31T16:43:15;25.87;;;15.07;;
15354;SDS011;7777;52.254;9.618;2022-10-31T16:45:45;32.80;;;17.93;;
15354;SDS011;7777;52.254;9.618;2022-10-31T16:48:20;27.03;;;16.50;;
15354;SDS011;7777;52.254;9.618;2022-10-31T16:50:48;33.87;;;16.90;;
15354;SDS011;7777;52.254;9.618;2022-10-31T16:53:15;31.90;;;16.43;;
15354;SDS011;7777;52.254;9.618;2022-10-31T16:55:50;24.10;;;17.23;;
15354;SDS011;7777;52.254;9.618;2022-10-31T16:58:23;28.67;;;16.27;;
15354;SDS011;7777;52.254;9.618;2022-10-31T17:00:53;26.73;;;16.53;;
15354;SDS011;7777;52.254;9.618;2022-10-31T17:03:19;22.63;;;15.67;;
15354;SDS011;7777;52.254;9.618;2022-10-31T17:05:45;24.97;;;16.30;;
15354;SDS011;7777;52.254;9.618;2022-10-31T17:08:11;29.07;;;16.13;;
15354;SDS011;7777;52.254;9.618;2022-10-31T17:10:37;23.67;;;15.77;;
15354;SDS011;7777;52.254;9.618;2022-10-31T17:13:05;29.40;;;16.40;;
15354;SDS011;7777;52.254;9.618;2022-10-31T17:15:37;26.60;;;15.40;;
15354;SDS011;7777;52.254;9.618;2022-10-31T17:18:10;64.23;;;43.93;;
15354;SDS011;7777;52.254;9.618;2022-10-31T17:20:41;31.10;;;22.07;;
15354;SDS011;7777;52.254;9.618;2022-10-31T17:23:08;43.70;;;34.93;;
15354;SDS011;7777;52.254;9.618;2022-10-31T17:25:36;43.27;;;29.57;;
15354;SDS011;7777;52.254;9.618;2022-10-31T17:28:02;41.70;;;18.60;;
15354;SDS011;7777;52.254;9.618;2022-10-31T17:30:29;27.40;;;18.70;;
15354;SDS011;7777;52.254;9.618;2022-10-31T17:32:56;32.27;;;23.70;;
15354;SDS011;7777;52.254;9.618;2022-10-31T17:35:22;40.80;;;27.60;;
15354;SDS011;7777;52.254;9.618;2022-10-31T17:37:48;36.10;;;23.50;;
15354;SDS011;7777;52.254;9.618;2022-10-31T17:40:15;25.73;;;16.67;;
15354;SDS011;7777;52.254;9.618;2022-10-31T17:42:50;23.97;;;14.33;;
15354;SDS011;7777;52.254;9.618;2022-10-31T17:45:18;26.40;;;14.57;;
15354;SDS011;7777;52.254;9.618;2022-10-31T17:47:48;27.30;;;13.90;;
15354;SDS011;7777;52.254;9.618;2022-10-31T17:50:16;23.87;;;14.77;;
15354;SDS011;7777;52.254;9.618;2022-10-31T17:52:44;23.40;;;13.77;;
15354;SDS011;7777;52.254;9.618;2022-10-31T17:55:10;20.50;;;13.53;;
15354;SDS011;7777;52.254;9.618;2022-10-31T17:57:37;24.27;;;13.23;;
15354;SDS011;7777;52.254;9.618;2022-10-31T18:00:05;23.90;;;13.93;;
15354;SDS011;7777;52.254;9.618;2022-10-31T18:02:37;24.27;;;14.47;;
15354;SDS011;7777;52.254;9.618;2022-10-31T18:05:04;21.63;;;14.50;;